Time;durP1;ratioP1;P1;durP2;ratioP2;P2;SDS_P1;SDS_P2;PMS_P1;PMS_P2;Temp;Humidity;BMP_temperature;BMP_pressure;BME280_temperature;BME280_humidity;BME280_pressure;Samples;Min_cycle;Max_cycle;Signal;HPM_P1;HPM_P2
2023/01/01 00:01:15;;;;;;;0.70;0.70;;;-1.20;99.90;;;;;;5070986;28;20200;-76
2023/01/01 00:03:41;;;;;;;1.75;1.52;;;-1.20;99.90;;;;;;5085997;28;20231;-75
2023/01/01 00:06:09;;;;;;;0.80;0.80;;;-1.20;99.90;;;;;;5092595;28;20200;-74
2023/01/01 00:08:35;;;;;;;0.60;0.60;;;-1.10;99.90;;;;;;5074053;28;20594;-70
2023/01/01 00:11:02;;;;;;;0.60;0.60;;;-1.10;99.90;;;;;;5092471;28;20326;-69
2023/01/01 00:13:28;;;;;;;0.60;0.60;;;-1.20;99.90;;;;;;5073873;28;20557;-70
2023/01/01 00:15:54;;;;;;;0.60;0.60;;;-1.20;99.90;;;;;;5092427;28;20813;-71
2023/01/01 00:18:20;;;;;;;0.70;0.70;;;-1.20;99.90;;;;;;5092090;28;20188;-72
2023/01/01 00:20:45;;;;;;;0.70;0.70;;;-1.30;99.90;;;;;;5073436;28;20195;-71
2023/01/01 00:23:11;;;;;;;0.70;0.70;;;-1.30;99.90;;;;;;5091669;28;20203;-70
2023/01/01 00:25:40;;;;;;;0.70;0.70;;;-1.40;99.90;;;;;;5091982;28;20219;-73
2023/01/01 00:28:08;;;;;;;0.80;0.80;;;-1.40;99.90;;;;;;5092389;28;20271;-70
2023/01/01 00:30:37;;;;;;;0.85;0.77;;;-1.50;99.90;;;;;;5091822;28;20208;-70
2023/01/01 00:33:03;;;;;;;0.70;0.70;;;-1.60;99.90;;;;;;5073898;28;20716;-71
2023/01/01 00:35:29;;;;;;;0.90;0.90;;;-1.50;99.90;;;;;;5092224;28;20280;-71
2023/01/01 00:37:54;;;;;;;0.80;0.80;;;-1.60;99.90;;;;;;5091854;28;20297;-70
2023/01/01 00:40:20;;;;;;;5.15;1.50;;;-1.60;99.90;;;;;;5091827;28;20192;-71
2023/01/01 00:42:46;;;;;;;0.63;0.63;;;-1.60;99.90;;;;;;5074008;28;20227;-71
2023/01/01 00:45:12;;;;;;;0.60;0.60;;;-1.60;99.90;;;;;;5091617;28;20256;-71
2023/01/01 00:47:37;;;;;;;0.80;0.80;;;-1.60;99.90;;;;;;5091803;28;20200;-71
2023/01/01 00:50:03;;;;;;;0.60;0.60;;;-1.60;99.90;;;;;;5091763;28;20211;-71
2023/01/01 00:52:29;;;;;;;0.60;0.60;;;-1.60;99.90;;;;;;5091663;28;20589;-71
2023/01/01 00:54:55;;;;;;;1.27;1.23;;;-1.60;99.90;;;;;;5073834;28;20232;-70
2023/01/01 00:57:20;;;;;;;0.80;0.80;;;-1.60;99.90;;;;;;5091602;28;20211;-70
2023/01/01 00:59:46;;;;;;;0.80;0.80;;;-1.70;99.90;;;;;;5092010;28;20196;-71
2023/01/01 01:02:12;;;;;;;1.30;1.20;;;-1.70;99.90;;;;;;5089540;28;20243;-71
2023/01/01 01:04:38;;;;;;;0.88;0.88;;;-1.70;99.90;;;;;;5083486;28;20699;-71
2023/01/01 01:07:03;;;;;;;0.70;0.70;;;-1.80;99.90;;;;;;5091854;28;20245;-71
2023/01/01 01:09:29;;;;;;;0.88;0.88;;;-1.80;99.90;;;;;;5091551;28;20205;-71
2023/01/01 01:11:55;;;;;;;0.70;0.70;;;-1.80;99.90;;;;;;5091812;28;20677;-70
2023/01/01 01:14:21;;;;;;;1.00;1.00;;;-1.90;99.90;;;;;;5091608;28;20192;-71
2023/01/01 01:16:46;;;;;;;0.80;0.80;;;-1.80;99.90;;;;;;5091743;28;20242;-71
2023/01/01 01:19:17;;;;;;;1.00;1.00;;;-1.80;99.90;;;;;;5091743;28;20200;-71
2023/01/01 01:21:43;;;;;;;0.70;0.70;;;-1.80;99.90;;;;;;5073621;28;20270;-70
2023/01/01 01:24:10;;;;;;;0.70;0.70;;;-1.80;99.90;;;;;;5091487;28;20193;-70
2023/01/01 01:26:35;;;;;;;0.70;0.70;;;-1.80;99.90;;;;;;5091222;28;20192;-70
2023/01/01 01:29:01;;;;;;;0.70;0.70;;;-1.80;99.90;;;;;;5091715;28;20199;-70
2023/01/01 01:31:29;;;;;;;0.82;0.82;;;-1.90;99.90;;;;;;5074773;28;20192;-71
2023/01/01 01:33:56;;;;;;;0.70;0.70;;;-1.90;99.90;;;;;;5077112;28;20662;-70
2023/01/01 01:36:22;;;;;;;0.70;0.70;;;-2.00;99.90;;;;;;5110801;28;20187;-70
2023/01/01 01:38:48;;;;;;;0.80;0.80;;;-2.00;99.90;;;;;;5073441;28;20246;-71
2023/01/01 01:41:18;;;;;;;0.63;0.63;;;-2.00;99.90;;;;;;5082969;28;20235;-71
2023/01/01 01:44:26;;;;;;;0.70;0.70;;;-2.00;99.90;;;;;;5094527;28;20203;-70
2023/01/01 01:46:52;;;;;;;0.77;0.77;;;-2.00;99.90;;;;;;5077099;28;20240;-70
2023/01/01 01:49:28;;;;;;;0.70;0.70;;;-2.00;99.90;;;;;;5074338;28;20212;-70
2023/01/01 01:51:55;;;;;;;0.70;0.70;;;-2.00;99.90;;;;;;5074933;28;20281;-69
2023/01/01 01:54:24;;;;;;;0.80;0.80;;;-2.10;99.90;;;;;;5073291;28;20732;-71
2023/01/01 01:57:00;;;;;;;2.80;1.27;;;-2.20;99.90;;;;;;5075067;28;20632;-71
2023/01/01 01:59:30;;;;;;;0.70;0.70;;;-2.20;99.90;;;;;;5074517;28;20200;-71
2023/01/01 02:01:57;;;;;;;1.05;1.05;;;-2.30;99.90;;;;;;5076605;28;20249;-70
2023/01/01 02:04:23;;;;;;;1.00;1.00;;;-2.30;99.90;;;;;;5118833;22;20318;-74
2023/01/01 02:06:50;;;;;;;0.80;0.80;;;-2.30;99.90;;;;;;5114579;28;20283;-74
2023/01/01 02:09:26;;;;;;;0.70;0.70;;;-2.30;99.90;;;;;;5096005;28;20212;-74
2023/01/01 02:11:52;;;;;;;0.70;0.70;;;-2.30;99.90;;;;;;5114484;28;20191;-73
2023/01/01 02:14:18;;;;;;;0.80;0.80;;;-2.20;99.90;;;;;;5114954;28;20296;-74
2023/01/01 02:16:46;;;;;;;0.70;0.70;;;-2.20;99.90;;;;;;5096130;28;20195;-74
2023/01/01 02:19:31;;;;;;;0.80;0.80;;;-2.20;99.90;;;;;;5096064;28;20230;-74
2023/01/01 02:21:56;;;;;;;0.70;0.70;;;-2.20;99.90;;;;;;5096013;28;20282;-74
2023/01/01 02:24:34;;;;;;;0.70;0.70;;;-2.20;99.90;;;;;;5113989;28;20290;-74
2023/01/01 02:27:30;;;;;;;0.60;0.60;;;-2.10;99.90;;;;;;5095866;28;20198;-75
2023/01/01 02:30:02;;;;;;;0.70;0.70;;;-2.10;99.90;;;;;;5075014;28;20583;-74
2023/01/01 02:32:46;;;;;;;0.60;0.60;;;-2.10;99.90;;;;;;5114189;28;20282;-75
2023/01/01 02:35:37;;;;;;;1.15;1.15;;;-2.20;99.90;;;;;;5114004;28;20274;-75
2023/01/01 02:38:11;;;;;;;0.75;0.75;;;-2.20;99.90;;;;;;5113406;28;20183;-75
2023/01/01 02:40:43;;;;;;;0.93;0.93;;;-2.30;99.90;;;;;;5113735;28;20251;-74
2023/01/01 02:43:08;;;;;;;1.23;1.13;;;-2.40;99.90;;;;;;5113035;28;20235;-75
2023/01/01 02:45:34;;;;;;;1.45;1.35;;;-2.40;99.90;;;;;;5095116;28;20358;-73
2023/01/01 02:48:40;;;;;;;0.98;0.98;;;-2.50;99.90;;;;;;5095514;28;20196;-73
2023/01/01 02:51:21;;;;;;;0.75;0.75;;;-2.60;99.90;;;;;;5113671;28;20717;-74
2023/01/01 02:53:56;;;;;;;0.80;0.80;;;-2.60;99.90;;;;;;5113494;28;20187;-74
2023/01/01 02:56:30;;;;;;;1.15;1.10;;;-2.60;99.90;;;;;;5095110;28;20201;-73
2023/01/01 03:02:12;;;;;;;0.75;0.75;;;-2.60;99.90;;;;;;5112833;28;20198;-74
2023/01/01 03:05:02;;;;;;;0.80;0.80;;;-2.60;99.90;;;;;;5094427;28;20231;-73
2023/01/01 03:07:41;;;;;;;0.65;0.65;;;-2.60;99.90;;;;;;5112998;28;20223;-73
2023/01/01 03:10:15;;;;;;;0.70;0.70;;;-2.60;99.90;;;;;;5094925;28;20625;-73
2023/01/01 03:12:56;;;;;;;1.00;1.00;;;-2.60;99.90;;;;;;5113104;28;20240;-74
2023/01/01 03:16:09;;;;;;;0.70;0.70;;;-2.60;99.90;;;;;;5112826;28;20245;-73
2023/01/01 03:19:09;;;;;;;0.75;0.75;;;-2.60;99.90;;;;;;5010159;28;20195;-73
2023/01/01 03:21:42;;;;;;;0.60;0.60;;;-2.60;99.90;;;;;;5028440;28;20209;-74
2023/01/01 03:24:19;;;;;;;0.77;0.77;;;-2.70;99.90;;;;;;5029957;28;20227;-73
2023/01/01 03:26:49;;;;;;;1.35;1.25;;;-2.70;99.90;;;;;;5030024;28;20257;-73
2023/01/01 03:29:16;;;;;;;1.05;1.05;;;-2.80;99.90;;;;;;5029929;28;20210;-73
2023/01/01 03:31:45;;;;;;;0.77;0.77;;;-2.80;99.90;;;;;;5029914;28;20325;-73
2023/01/01 03:34:21;;;;;;;0.70;0.70;;;-2.80;99.90;;;;;;5012598;28;20879;-73
2023/01/01 03:36:53;;;;;;;0.85;0.85;;;-2.90;99.90;;;;;;5029731;28;20205;-73
2023/01/01 03:39:25;;;;;;;0.70;0.70;;;-2.90;99.90;;;;;;5029228;28;20656;-73
2023/01/01 03:42:11;;;;;;;0.60;0.60;;;-2.90;99.90;;;;;;5006365;28;20774;-73
2023/01/01 03:45:00;;;;;;;0.70;0.70;;;-3.00;99.90;;;;;;5009746;28;20206;-73
2023/01/01 03:47:27;;;;;;;0.90;0.90;;;-3.00;99.90;;;;;;4993155;28;20199;-73
2023/01/01 03:49:54;;;;;;;0.73;0.73;;;-3.00;99.90;;;;;;5009722;28;20217;-73
2023/01/01 03:52:48;;;;;;;0.90;0.90;;;-3.10;99.90;;;;;;5034390;28;20212;-73
2023/01/01 03:55:35;;;;;;;1.30;1.20;;;-3.10;99.90;;;;;;5089956;28;20198;-73
2023/01/01 03:58:54;;;;;;;0.73;0.73;;;-3.10;99.90;;;;;;5092056;28;20211;-73
2023/01/01 04:01:32;;;;;;;0.73;0.73;;;-3.20;99.90;;;;;;5055770;28;20226;-73
2023/01/01 04:03:59;;;;;;;0.60;0.60;;;-3.10;99.90;;;;;;5077346;28;20230;-73
2023/01/01 04:06:25;;;;;;;0.70;0.70;;;-3.00;99.90;;;;;;5112103;28;20625;-73
2023/01/01 04:08:57;;;;;;;0.65;0.65;;;-3.00;99.90;;;;;;5112150;28;20203;-73
2023/01/01 04:14:13;;;;;;;0.70;0.70;;;-3.10;99.90;;;;;;5092148;28;20222;-73
2023/01/01 04:16:39;;;;;;;1.40;1.33;;;-3.20;99.90;;;;;;5091527;28;20275;-73
2023/01/01 04:19:07;;;;;;;0.80;0.80;;;-3.20;99.90;;;;;;5091814;28;20266;-73
2023/01/01 04:21:33;;;;;;;0.77;0.77;;;-3.20;99.90;;;;;;5090209;28;20203;-73
2023/01/01 04:23:59;;;;;;;1.10;1.08;;;-3.30;99.90;;;;;;5090282;28;20196;-73
2023/01/01 04:26:24;;;;;;;1.23;1.15;;;-3.30;99.90;;;;;;5091472;28;20227;-73
2023/01/01 04:28:50;;;;;;;0.90;0.90;;;-3.30;99.90;;;;;;5091464;28;20690;-73
2023/01/01 04:31:16;;;;;;;0.73;0.73;;;-3.30;99.90;;;;;;5110199;28;20283;-73
2023/01/01 04:33:42;;;;;;;0.70;0.70;;;-3.30;99.90;;;;;;5111737;28;20230;-74
2023/01/01 04:36:09;;;;;;;0.63;0.63;;;-3.30;99.90;;;;;;5111910;28;20217;-73
2023/01/01 04:38:36;;;;;;;0.70;0.70;;;-3.30;99.90;;;;;;5111358;28;20195;-73
2023/01/01 04:41:02;;;;;;;0.70;0.70;;;-3.40;99.90;;;;;;5111564;28;20544;-72
2023/01/01 04:43:29;;;;;;;0.80;0.80;;;-3.40;99.90;;;;;;5091234;28;20187;-72
2023/01/01 04:45:59;;;;;;;0.70;0.70;;;-3.40;99.90;;;;;;5090074;28;20215;-72
2023/01/01 04:48:27;;;;;;;0.70;0.70;;;-3.50;99.90;;;;;;5091356;28;20196;-72
2023/01/01 04:50:58;;;;;;;0.80;0.80;;;-3.50;99.90;;;;;;5105443;28;20196;-72
2023/01/01 04:53:24;;;;;;;0.70;0.70;;;-3.40;99.90;;;;;;5111730;28;20248;-72
2023/01/01 04:55:50;;;;;;;0.70;0.70;;;-3.40;99.90;;;;;;5111607;28;20184;-72
2023/01/01 04:58:16;;;;;;;1.95;1.85;;;-3.30;99.90;;;;;;5111561;28;20729;-72
2023/01/01 05:00:42;;;;;;;0.70;0.70;;;-3.20;99.90;;;;;;5093071;28;21003;-72
2023/01/01 05:03:08;;;;;;;0.90;0.90;;;-3.10;99.90;;;;;;5111440;28;20274;-74
2023/01/01 05:05:33;;;;;;;0.80;0.80;;;-3.10;99.90;;;;;;5111332;28;20573;-72
2023/01/01 05:07:59;;;;;;;1.08;1.08;;;-3.20;99.90;;;;;;5115706;28;20197;-72
2023/01/01 05:10:25;;;;;;;0.90;0.90;;;-3.20;99.90;;;;;;5115402;28;20235;-72
2023/01/01 05:12:50;;;;;;;0.77;0.77;;;-3.30;99.90;;;;;;5097282;28;20673;-72
2023/01/01 05:15:16;;;;;;;1.42;1.33;;;-3.40;99.90;;;;;;5097250;28;20203;-75
2023/01/01 05:17:42;;;;;;;0.90;0.90;;;-3.40;99.90;;;;;;5097073;28;20228;-72
2023/01/01 05:20:08;;;;;;;0.60;0.60;;;-3.40;99.90;;;;;;5115455;28;20274;-75
2023/01/01 05:22:33;;;;;;;0.60;0.60;;;-3.50;99.90;;;;;;5115182;28;20191;-74
2023/01/01 05:24:59;;;;;;;0.90;0.90;;;-3.50;99.90;;;;;;5115297;28;20203;-72
2023/01/01 05:27:25;;;;;;;1.92;1.80;;;-3.70;99.90;;;;;;5105763;28;20212;-73
2023/01/01 05:29:51;;;;;;;0.80;0.80;;;-3.70;99.90;;;;;;5076451;28;20212;-74
2023/01/01 05:32:16;;;;;;;0.90;0.90;;;-3.70;99.90;;;;;;5094874;28;20199;-75
2023/01/01 05:34:42;;;;;;;0.80;0.80;;;-3.70;99.90;;;;;;5094667;28;20242;-73
2023/01/01 05:37:08;;;;;;;0.80;0.80;;;-3.80;99.90;;;;;;5094672;28;20686;-74
2023/01/01 05:39:33;;;;;;;0.80;0.80;;;-3.70;99.90;;;;;;5094235;28;20674;-72
2023/01/01 05:41:59;;;;;;;0.80;0.80;;;-3.70;99.90;;;;;;5094607;28;20234;-72
2023/01/01 05:44:25;;;;;;;0.90;0.90;;;-3.70;99.90;;;;;;5094339;28;20949;-74
2023/01/01 05:46:50;;;;;;;0.70;0.70;;;-3.60;99.90;;;;;;5094687;28;20541;-74
2023/01/01 05:49:16;;;;;;;0.70;0.70;;;-3.40;99.90;;;;;;5094471;28;20220;-73
2023/01/01 05:51:42;;;;;;;0.70;0.70;;;-3.20;99.90;;;;;;5094451;28;20200;-73
2023/01/01 05:54:09;;;;;;;0.80;0.80;;;-3.20;99.90;;;;;;5094443;28;20195;-72
2023/01/01 05:56:35;;;;;;;0.80;0.80;;;-3.20;99.90;;;;;;5094215;28;20216;-75
2023/01/01 05:59:01;;;;;;;0.80;0.80;;;-3.10;99.90;;;;;;5076181;28;20204;-72
2023/01/01 06:01:29;;;;;;;0.82;0.82;;;-3.10;99.90;;;;;;5092538;28;20291;-73
2023/01/01 06:03:56;;;;;;;0.70;0.70;;;-3.00;99.90;;;;;;5079767;28;20600;-77
2023/01/01 06:06:28;;;;;;;0.80;0.80;;;-2.80;99.90;;;;;;5114256;28;20195;-74
2023/01/01 06:08:59;;;;;;;0.70;0.70;;;-2.60;99.90;;;;;;5096232;28;20603;-74
2023/01/01 06:11:26;;;;;;;0.80;0.80;;;-2.40;99.90;;;;;;5114164;28;20278;-74
2023/01/01 06:13:57;;;;;;;0.63;0.63;;;-2.20;99.90;;;;;;5096123;28;20215;-72
2023/01/01 06:16:23;;;;;;;0.70;0.70;;;-2.20;99.90;;;;;;5095978;28;20194;-72
2023/01/01 06:18:49;;;;;;;0.80;0.80;;;-2.10;99.90;;;;;;5113138;28;20187;-72
2023/01/01 06:21:17;;;;;;;0.70;0.70;;;-2.10;99.90;;;;;;5114552;28;20206;-72
2023/01/01 06:23:43;;;;;;;0.80;0.80;;;-2.10;99.90;;;;;;5095212;28;20619;-75
2023/01/01 06:26:19;;;;;;;0.80;0.80;;;-2.10;99.90;;;;;;5075551;28;20287;-73
2023/01/01 06:28:46;;;;;;;0.70;0.70;;;-2.00;99.90;;;;;;5093772;28;20188;-72
2023/01/01 06:31:14;;;;;;;0.73;0.73;;;-1.90;99.90;;;;;;5093602;28;20559;-74
2023/01/01 06:33:40;;;;;;;0.73;0.73;;;-1.90;99.90;;;;;;5092140;28;20196;-73
2023/01/01 06:36:09;;;;;;;0.80;0.80;;;-1.80;99.90;;;;;;5073329;28;20185;-72
2023/01/01 06:38:36;;;;;;;0.70;0.70;;;-1.80;99.90;;;;;;5062931;28;20193;-72
2023/01/01 06:41:09;;;;;;;0.90;0.90;;;-1.70;99.90;;;;;;5066657;28;20263;-74
2023/01/01 06:43:35;;;;;;;0.73;0.73;;;-1.80;99.90;;;;;;5095412;28;20207;-72
2023/01/01 06:46:03;;;;;;;0.90;0.90;;;-1.90;99.90;;;;;;5113766;28;20196;-75
2023/01/01 06:48:31;;;;;;;0.70;0.70;;;-1.90;99.90;;;;;;5113586;28;20192;-75
2023/01/01 06:50:57;;;;;;;0.60;0.60;;;-1.90;99.90;;;;;;5113615;28;20680;-74
2023/01/01 06:53:24;;;;;;;0.70;0.70;;;-1.90;99.90;;;;;;5113399;28;20560;-72
2023/01/01 06:55:51;;;;;;;0.75;0.75;;;-2.00;99.90;;;;;;5113597;28;20192;-72
2023/01/01 06:58:17;;;;;;;0.70;0.70;;;-2.00;99.90;;;;;;5113573;28;20637;-74
2023/01/01 07:00:42;;;;;;;0.80;0.80;;;-2.00;99.90;;;;;;5113384;28;20576;-74
2023/01/01 07:03:11;;;;;;;0.70;0.70;;;-2.10;99.90;;;;;;5094846;28;20191;-72
2023/01/01 07:05:37;;;;;;;1.17;1.15;;;-2.00;99.90;;;;;;5112798;28;20600;-74
2023/01/01 07:08:03;;;;;;;0.60;0.60;;;-2.00;99.90;;;;;;5114106;28;20191;-75
2023/01/01 07:10:29;;;;;;;0.70;0.70;;;-2.00;99.90;;;;;;5094842;28;20206;-72
2023/01/01 07:12:54;;;;;;;0.70;0.70;;;-2.00;99.90;;;;;;5113295;28;20203;-75
2023/01/01 07:15:20;;;;;;;0.70;0.70;;;-2.00;99.90;;;;;;5094654;28;20196;-72
2023/01/01 07:17:46;;;;;;;0.80;0.80;;;-2.00;99.90;;;;;;5113201;28;20673;-75
2023/01/01 07:20:12;;;;;;;0.70;0.70;;;-2.00;99.90;;;;;;5113032;28;20565;-72
2023/01/01 07:22:39;;;;;;;0.70;0.70;;;-2.00;99.90;;;;;;5094528;28;20192;-75
2023/01/01 07:25:06;;;;;;;0.77;0.77;;;-2.00;99.90;;;;;;5112864;28;20195;-75
2023/01/01 07:27:32;;;;;;;0.88;0.88;;;-2.00;99.90;;;;;;5112711;28;20191;-75
2023/01/01 07:29:58;;;;;;;0.77;0.77;;;-2.00;99.90;;;;;;5093639;28;20633;-73
2023/01/01 07:32:23;;;;;;;0.77;0.77;;;-1.90;99.90;;;;;;5092625;28;20286;-75
2023/01/01 07:34:49;;;;;;;0.75;0.75;;;-1.80;99.90;;;;;;5093060;28;20202;-74
2023/01/01 07:37:15;;;;;;;0.80;0.80;;;-1.80;99.90;;;;;;5105816;28;20247;-75
2023/01/01 07:39:41;;;;;;;0.85;0.85;;;-1.70;99.90;;;;;;5111069;28;20203;-75
2023/01/01 07:42:06;;;;;;;0.80;0.80;;;-1.70;99.90;;;;;;5112044;28;20192;-75
2023/01/01 07:44:32;;;;;;;0.68;0.68;;;-1.80;99.90;;;;;;5092822;28;20191;-75
2023/01/01 07:47:02;;;;;;;0.50;0.50;;;-1.70;99.90;;;;;;5093132;28;20191;-74
2023/01/01 07:49:28;;;;;;;0.80;0.80;;;-1.60;99.90;;;;;;5111126;28;20242;-75
2023/01/01 07:51:54;;;;;;;0.73;0.73;;;-1.60;99.90;;;;;;5111216;28;20271;-75
2023/01/01 07:54:19;;;;;;;1.05;1.05;;;-1.50;99.90;;;;;;5111104;28;20195;-74
2023/01/01 07:56:45;;;;;;;0.80;0.80;;;-1.40;99.90;;;;;;5110926;28;20560;-75
2023/01/01 07:59:11;;;;;;;0.60;0.60;;;-1.40;99.90;;;;;;5090684;28;20200;-76
2023/01/01 08:01:37;;;;;;;0.60;0.60;;;-1.40;99.90;;;;;;5090342;28;20184;-76
2023/01/01 08:04:04;;;;;;;0.75;0.75;;;-1.40;99.90;;;;;;5072150;28;20235;-75
2023/01/01 08:06:29;;;;;;;0.80;0.80;;;-1.40;99.90;;;;;;5072375;28;20196;-75
2023/01/01 08:08:55;;;;;;;0.70;0.70;;;-1.50;99.90;;;;;;5072567;28;20203;-75
2023/01/01 08:11:21;;;;;;;0.80;0.80;;;-1.50;99.90;;;;;;5091270;28;20663;-73
2023/01/01 08:13:46;;;;;;;0.70;0.70;;;-1.40;99.90;;;;;;5091764;28;20250;-73
2023/01/01 08:16:12;;;;;;;0.73;0.73;;;-1.40;99.90;;;;;;5110003;28;20191;-76
2023/01/01 08:18:38;;;;;;;0.60;0.60;;;-1.40;99.90;;;;;;5111789;28;20230;-73
2023/01/01 08:21:04;;;;;;;0.80;0.80;;;-1.40;99.90;;;;;;5112245;28;20226;-74
2023/01/01 08:23:30;;;;;;;0.70;0.70;;;-1.50;99.90;;;;;;5111776;28;20211;-74
2023/01/01 08:26:00;;;;;;;0.70;0.70;;;-1.50;99.90;;;;;;5112269;28;20719;-74
2023/01/01 08:28:26;;;;;;;0.70;0.70;;;-1.50;99.90;;;;;;5091715;28;20192;-74
2023/01/01 08:30:53;;;;;;;0.80;0.80;;;-1.50;99.90;;;;;;5091631;28;20188;-74
2023/01/01 08:33:18;;;;;;;0.70;0.70;;;-1.60;99.90;;;;;;5091364;28;20199;-74
2023/01/01 08:35:44;;;;;;;0.65;0.65;;;-1.70;99.90;;;;;;5104488;28;20654;-74
2023/01/01 08:38:11;;;;;;;0.68;0.68;;;-1.80;99.90;;;;;;5111800;28;20657;-74
2023/01/01 08:40:37;;;;;;;0.60;0.60;;;-1.80;99.90;;;;;;5111173;28;20278;-75
2023/01/01 08:43:03;;;;;;;0.80;0.80;;;-1.90;99.90;;;;;;5094298;28;20282;-75
2023/01/01 08:45:28;;;;;;;0.70;0.70;;;-1.90;99.90;;;;;;5095023;28;20563;-75
2023/01/01 08:47:54;;;;;;;0.70;0.70;;;-1.80;99.90;;;;;;5113285;28;20187;-75
2023/01/01 08:50:20;;;;;;;0.60;0.60;;;-1.80;99.90;;;;;;5113161;28;20274;-75
2023/01/01 08:52:45;;;;;;;0.52;0.52;;;-1.70;99.90;;;;;;5094906;28;20195;-74
2023/01/01 08:55:11;;;;;;;0.70;0.70;;;-1.70;99.90;;;;;;5094735;28;20195;-74
2023/01/01 08:57:37;;;;;;;0.70;0.70;;;-1.70;99.90;;;;;;5112819;28;20198;-75
2023/01/01 09:00:04;;;;;;;0.70;0.70;;;-1.60;99.90;;;;;;5113063;28;20207;-75
2023/01/01 09:02:30;;;;;;;0.73;0.73;;;-1.60;99.90;;;;;;5113409;28;20264;-77
2023/01/01 09:04:56;;;;;;;0.60;0.60;;;-1.60;99.90;;;;;;5112851;28;20238;-75
2023/01/01 09:07:21;;;;;;;0.70;0.70;;;-1.60;99.90;;;;;;5112907;28;20188;-72
2023/01/01 09:09:47;;;;;;;0.68;0.68;;;-1.60;99.90;;;;;;5112865;28;20191;-72
2023/01/01 09:12:15;;;;;;;0.60;0.60;;;-1.60;99.90;;;;;;5112637;28;20637;-71
2023/01/01 09:14:41;;;;;;;0.70;0.70;;;-1.60;99.90;;;;;;5094392;28;20195;-72
2023/01/01 09:17:07;;;;;;;0.80;0.80;;;-1.60;99.90;;;;;;5112771;28;20192;-72
2023/01/01 09:19:33;;;;;;;0.60;0.60;;;-1.60;99.90;;;;;;5112689;28;20545;-72
2023/01/01 09:21:58;;;;;;;0.77;0.77;;;-1.60;99.90;;;;;;5094475;28;20192;-72
2023/01/01 09:24:24;;;;;;;0.70;0.70;;;-1.60;99.90;;;;;;5094606;28;20210;-71
2023/01/01 09:26:50;;;;;;;0.70;0.70;;;-1.70;99.90;;;;;;5112676;28;20558;-72
2023/01/01 09:29:20;;;;;;;0.85;0.85;;;-1.70;99.90;;;;;;5112553;28;20202;-72
2023/01/01 09:31:47;;;;;;;0.90;0.90;;;-1.60;99.90;;;;;;5094170;28;20229;-72
2023/01/01 09:34:13;;;;;;;0.70;0.70;;;-1.60;99.90;;;;;;5094433;28;20273;-72
2023/01/01 09:36:39;;;;;;;1.40;1.30;;;-1.60;99.90;;;;;;5112485;28;20199;-72
2023/01/01 09:39:05;;;;;;;2.33;2.08;;;-1.60;99.90;;;;;;5112364;28;20252;-73
2023/01/01 09:42:08;;;;;;;1.60;1.42;;;-1.60;99.90;;;;;;5094223;28;20192;-73
2023/01/01 09:45:07;;;;;;;0.60;0.60;;;-1.50;99.90;;;;;;5112469;28;20191;-73
2023/01/01 09:47:36;;;;;;;0.75;0.75;;;-1.60;99.90;;;;;;5112419;28;20673;-72
2023/01/01 09:50:17;;;;;;;0.65;0.65;;;-1.50;99.90;;;;;;5094243;28;20195;-72
2023/01/01 09:53:02;;;;;;;1.55;1.45;;;-1.60;99.90;;;;;;5096244;28;20630;-73
2023/01/01 09:55:50;;;;;;;0.70;0.70;;;-1.60;99.90;;;;;;5097676;28;20668;-72
2023/01/01 09:58:21;;;;;;;0.70;0.70;;;-1.60;99.90;;;;;;5115614;28;20583;-72
2023/01/01 10:00:55;;;;;;;0.70;0.70;;;-1.70;99.90;;;;;;5115952;28;20207;-73
2023/01/01 10:03:39;;;;;;;0.70;0.70;;;-1.70;99.90;;;;;;5097360;28;20195;-73
2023/01/01 10:06:14;;;;;;;0.63;0.63;;;-1.70;99.90;;;;;;5097659;28;20208;-73
2023/01/01 10:09:01;;;;;;;0.70;0.70;;;-1.70;99.90;;;;;;5097168;28;20191;-73
2023/01/01 10:11:36;;;;;;;0.80;0.80;;;-1.80;99.90;;;;;;5115629;28;20301;-72
2023/01/01 10:14:10;;;;;;;0.77;0.77;;;-1.70;99.90;;;;;;5115852;28;20187;-73
2023/01/01 10:16:44;;;;;;;0.60;0.60;;;-1.80;99.90;;;;;;5115698;28;20602;-73
2023/01/01 10:19:31;;;;;;;0.85;0.85;;;-1.90;99.90;;;;;;5110031;28;20576;-74
2023/01/01 10:22:09;;;;;;;0.80;0.80;;;-1.90;99.90;;;;;;5095321;28;20258;-73
2023/01/01 10:24:46;;;;;;;0.80;0.80;;;-1.80;99.90;;;;;;5093835;28;20337;-73
2023/01/01 10:27:23;;;;;;;0.73;0.73;;;-1.90;99.90;;;;;;5099296;28;20187;-73
2023/01/01 10:29:56;;;;;;;0.75;0.75;;;-1.90;99.90;;;;;;5115531;28;20202;-73
2023/01/01 10:32:33;;;;;;;3.05;1.40;;;-1.90;99.90;;;;;;5115277;28;20238;-73
2023/01/01 10:35:01;;;;;;;0.70;0.70;;;-2.00;99.90;;;;;;5115481;28;20673;-73
2023/01/01 10:37:32;;;;;;;0.73;0.73;;;-2.00;99.90;;;;;;5114876;28;20191;-74
2023/01/01 10:39:59;;;;;;;0.70;0.70;;;-1.90;99.90;;;;;;5115221;28;20244;-74
2023/01/01 10:42:25;;;;;;;0.80;0.80;;;-1.90;99.90;;;;;;5115167;28;20188;-74
2023/01/01 10:44:52;;;;;;;0.70;0.70;;;-1.90;99.90;;;;;;5097030;28;20197;-74
2023/01/01 10:47:28;;;;;;;0.77;0.77;;;-1.90;99.90;;;;;;5096799;28;20627;-73
2023/01/01 10:49:55;;;;;;;0.60;0.60;;;-1.90;99.90;;;;;;5115127;28;20320;-73
2023/01/01 10:52:36;;;;;;;0.65;0.65;;;-1.90;99.90;;;;;;5096565;28;20195;-72
2023/01/01 10:55:02;;;;;;;0.70;0.70;;;-1.80;99.90;;;;;;5096804;28;20541;-74
2023/01/01 10:57:34;;;;;;;0.73;0.73;;;-1.80;99.90;;;;;;5114868;28;20602;-74
2023/01/01 11:00:11;;;;;;;0.60;0.60;;;-1.80;99.90;;;;;;5096531;28;20673;-75
2023/01/01 11:03:14;;;;;;;0.60;0.60;;;-1.80;99.90;;;;;;5099800;28;20218;-74
2023/01/01 11:06:21;;;;;;;0.70;0.70;;;-1.70;99.90;;;;;;5096539;28;20272;-75
2023/01/01 11:08:50;;;;;;;0.82;0.82;;;-1.70;99.90;;;;;;5090078;28;20235;-74
2023/01/01 11:11:31;;;;;;;0.60;0.60;;;-1.70;99.90;;;;;;5094367;28;20224;-73
2023/01/01 11:14:07;;;;;;;0.68;0.68;;;-1.70;99.90;;;;;;5094305;28;20189;-74
2023/01/01 11:16:39;;;;;;;0.70;0.70;;;-1.70;99.90;;;;;;5109115;28;20197;-74
2023/01/01 11:19:07;;;;;;;0.70;0.70;;;-1.70;99.90;;;;;;5096253;28;20195;-74
2023/01/01 11:21:34;;;;;;;0.60;0.60;;;-1.70;99.90;;;;;;5096001;28;20198;-74
2023/01/01 11:24:27;;;;;;;0.70;0.70;;;-1.70;99.90;;;;;;5102778;28;20191;-74
2023/01/01 11:27:30;;;;;;;0.70;0.70;;;-1.70;99.90;;;;;;5111704;28;20219;-73
2023/01/01 11:30:25;;;;;;;0.70;0.70;;;-1.70;99.90;;;;;;5095921;28;20218;-74
2023/01/01 11:32:57;;;;;;;0.70;0.70;;;-1.70;99.90;;;;;;5096054;28;20191;-74
2023/01/01 11:35:26;;;;;;;0.95;0.95;;;-1.70;99.90;;;;;;5095842;28;20202;-74
2023/01/01 11:37:53;;;;;;;0.90;0.90;;;-1.60;99.90;;;;;;5092359;28;20196;-74
2023/01/01 11:40:41;;;;;;;4.32;2.65;;;-1.60;99.90;;;;;;5093683;28;20605;-73
2023/01/01 11:43:07;;;;;;;0.70;0.70;;;-1.50;99.90;;;;;;5085016;28;20204;-74
2023/01/01 11:45:38;;;;;;;3.00;1.70;;;-1.40;99.90;;;;;;5092240;28;20188;-74
2023/01/01 11:48:12;;;;;;;0.70;0.70;;;-1.40;99.90;;;;;;5093712;28;20666;-74
2023/01/01 11:50:40;;;;;;;1.65;1.55;;;-1.40;99.90;;;;;;5092076;28;20238;-74
2023/01/01 11:53:25;;;;;;;0.70;0.70;;;-1.40;99.90;;;;;;5093488;28;20567;-75
2023/01/01 11:56:01;;;;;;;0.73;0.73;;;-1.30;99.90;;;;;;5075277;28;20210;-74
2023/01/01 11:58:31;;;;;;;0.95;0.95;;;-1.30;99.90;;;;;;5091988;28;20208;-74
2023/01/01 12:01:20;;;;;;;0.70;0.70;;;-1.30;99.90;;;;;;5117475;27;20405;-74
2023/01/01 12:04:00;;;;;;;0.60;0.60;;;-1.40;99.90;;;;;;5095065;28;20294;-73
2023/01/01 12:06:37;;;;;;;0.77;0.77;;;-1.30;99.90;;;;;;5095138;28;20223;-74
2023/01/01 12:09:25;;;;;;;0.82;0.82;;;-1.40;99.90;;;;;;5113766;28;20191;-74
2023/01/01 12:12:04;;;;;;;0.80;0.80;;;-1.40;99.90;;;;;;5106342;28;20214;-74
2023/01/01 12:14:30;;;;;;;0.65;0.65;;;-1.40;99.90;;;;;;5091793;28;20313;-74
2023/01/01 12:17:09;;;;;;;0.80;0.80;;;-1.40;99.90;;;;;;5091125;28;20229;-74
2023/01/01 12:19:45;;;;;;;0.88;0.88;;;-1.40;99.90;;;;;;5096185;28;20317;-73
2023/01/01 12:22:16;;;;;;;0.60;0.60;;;-1.40;99.90;;;;;;5095238;28;20198;-74
2023/01/01 12:24:44;;;;;;;0.73;0.73;;;-1.30;99.90;;;;;;5113217;28;20296;-74
2023/01/01 12:27:18;;;;;;;0.88;0.88;;;-1.30;99.90;;;;;;5095186;28;20689;-74
2023/01/01 12:29:58;;;;;;;0.80;0.80;;;-1.30;99.90;;;;;;5113222;28;20187;-74
2023/01/01 12:32:39;;;;;;;0.60;0.60;;;-1.40;99.90;;;;;;5094893;28;20199;-74
2023/01/01 12:35:10;;;;;;;0.70;0.70;;;-1.40;99.90;;;;;;5113260;28;20259;-74
2023/01/01 12:38:06;;;;;;;0.80;0.80;;;-1.40;99.90;;;;;;5112883;28;20196;-74
2023/01/01 12:40:57;;;;;;;0.70;0.70;;;-1.40;99.90;;;;;;5091680;28;20215;-74
2023/01/01 12:43:49;;;;;;;0.70;0.70;;;-1.40;99.90;;;;;;5073948;28;20555;-74
2023/01/01 12:46:33;;;;;;;0.70;0.70;;;-1.30;99.90;;;;;;5051145;28;20288;-74
2023/01/01 12:49:24;;;;;;;1.25;1.23;;;-1.40;99.90;;;;;;5075821;28;20191;-74
2023/01/01 12:52:24;;;;;;;0.70;0.70;;;-1.40;99.90;;;;;;5079857;28;20199;-74
2023/01/01 12:55:06;;;;;;;0.77;0.77;;;-1.40;99.90;;;;;;5022616;28;20687;-74
2023/01/01 12:57:54;;;;;;;0.77;0.77;;;-1.50;99.90;;;;;;5112582;28;20223;-75
2023/01/01 13:00:20;;;;;;;0.70;0.70;;;-1.40;99.90;;;;;;5112614;28;20675;-74
2023/01/01 13:03:15;;;;;;;0.60;0.60;;;-1.40;99.90;;;;;;5094640;28;20282;-73
2023/01/01 13:05:48;;;;;;;0.70;0.70;;;-1.40;99.90;;;;;;5094144;28;20223;-74
2023/01/01 13:08:14;;;;;;;0.70;0.70;;;-1.40;99.90;;;;;;5086461;28;20200;-74
2023/01/01 13:10:45;;;;;;;0.70;0.70;;;-1.40;99.90;;;;;;5092387;28;20215;-74
2023/01/01 13:13:14;;;;;;;1.00;1.00;;;-1.40;99.90;;;;;;5092502;28;20612;-74
2023/01/01 13:15:41;;;;;;;0.60;0.60;;;-1.50;99.90;;;;;;5073879;28;20597;-74